createdAt,value
2018-05-14T00:02:08.319Z,17.63
2018-05-14T00:04:36.660Z,17.60
2018-05-14T00:07:04.992Z,17.58
2018-05-14T00:09:33.353Z,17.38
2018-05-14T00:12:01.693Z,17.48
2018-05-14T00:14:30.040Z,17.34
2018-05-14T00:16:58.376Z,17.36
2018-05-14T00:19:26.737Z,17.28
2018-05-14T00:21:55.083Z,17.24
2018-05-14T00:24:23.429Z,17.18
2018-05-14T00:26:51.773Z,17.09
2018-05-14T00:29:20.129Z,17.16
2018-05-14T00:31:48.456Z,17.15
2018-05-14T00:34:16.819Z,17.12
2018-05-14T00:36:45.151Z,17.17
2018-05-14T00:39:13.502Z,17.12
2018-05-14T00:41:41.837Z,17.02
2018-05-14T00:44:10.195Z,16.98
2018-05-14T00:46:38.528Z,16.91
2018-05-14T00:49:06.884Z,16.89
2018-05-14T00:51:35.227Z,16.77
2018-05-14T00:54:03.579Z,16.68
2018-05-14T00:56:31.911Z,16.67
2018-05-14T00:59:00.273Z,16.60
2018-05-14T01:01:28.603Z,16.51
2018-05-14T01:03:56.937Z,16.51
2018-05-14T01:06:25.296Z,16.47
2018-05-14T01:08:53.634Z,16.43
2018-05-14T01:11:21.985Z,16.38
2018-05-14T01:13:50.315Z,16.42
2018-05-14T01:16:18.674Z,16.52
2018-05-14T01:18:47.008Z,16.68
2018-05-14T01:21:15.360Z,16.66
2018-05-14T01:23:43.708Z,16.62
2018-05-14T01:26:12.064Z,16.61
2018-05-14T01:28:40.396Z,16.62
2018-05-14T01:31:08.757Z,16.56
2018-05-14T01:33:37.096Z,16.46
2018-05-14T01:36:05.452Z,16.42
2018-05-14T01:38:33.788Z,16.44
2018-05-14T01:41:02.149Z,16.30
2018-05-14T01:43:30.489Z,16.10
2018-05-14T01:45:58.848Z,16.00
2018-05-14T01:48:27.193Z,16.05
2018-05-14T01:50:55.543Z,16.16
2018-05-14T01:53:23.878Z,16.23
2018-05-14T01:55:52.228Z,16.33
2018-05-14T01:58:20.566Z,16.28
2018-05-14T02:00:48.925Z,16.25
2018-05-14T02:03:17.265Z,16.33
2018-05-14T02:05:45.624Z,16.30
2018-05-14T02:08:13.961Z,16.18
2018-05-14T02:10:42.320Z,15.95
2018-05-14T02:13:10.658Z,15.91
2018-05-14T02:15:39.013Z,15.90
2018-05-14T02:18:07.352Z,15.99
2018-05-14T02:20:35.704Z,16.07
2018-05-14T02:23:04.059Z,16.03
2018-05-14T02:25:32.417Z,15.97
2018-05-14T02:28:00.756Z,15.78
2018-05-14T02:30:29.125Z,15.74
2018-05-14T02:32:57.464Z,15.68
2018-05-14T02:35:25.821Z,15.62
2018-05-14T02:37:54.161Z,15.67
2018-05-14T02:40:22.517Z,15.74
2018-05-14T02:42:50.845Z,15.73
2018-05-14T02:45:19.201Z,15.52
2018-05-14T02:47:47.533Z,15.48
2018-05-14T02:50:15.896Z,15.35
2018-05-14T02:52:44.232Z,15.09
2018-05-14T02:55:12.565Z,14.82
2018-05-14T02:57:40.917Z,14.76
2018-05-14T03:00:09.253Z,14.83
2018-05-14T03:02:37.609Z,14.88
2018-05-14T03:05:05.949Z,14.80
2018-05-14T03:07:34.293Z,14.80
2018-05-14T03:10:02.621Z,14.90
2018-05-14T03:12:30.973Z,15.06
2018-05-14T03:14:59.306Z,15.22
2018-05-14T03:17:27.656Z,15.32
2018-05-14T03:19:55.997Z,15.36
2018-05-14T03:22:24.357Z,15.40
2018-05-14T03:24:52.693Z,15.48
2018-05-14T03:27:21.045Z,15.52
2018-05-14T03:29:49.381Z,15.48
2018-05-14T03:32:17.733Z,15.47
2018-05-14T03:34:46.070Z,15.41
2018-05-14T03:37:14.420Z,15.40
2018-05-14T03:39:42.744Z,15.39
2018-05-14T03:42:11.096Z,15.40
2018-05-14T03:44:39.437Z,15.47
2018-05-14T03:47:07.797Z,15.43
2018-05-14T03:49:36.124Z,15.44
2018-05-14T03:52:04.476Z,15.55
2018-05-14T03:54:32.825Z,15.51
2018-05-14T03:57:01.168Z,15.46
2018-05-14T03:59:41.333Z,15.46
2018-05-14T04:02:23.206Z,15.46
2018-05-14T04:05:03.173Z,15.49
2018-05-14T04:07:31.530Z,15.48
2018-05-14T04:09:59.870Z,15.50
2018-05-14T04:12:29.137Z,15.47
2018-05-14T04:14:57.473Z,15.48
2018-05-14T04:17:25.828Z,15.56
2018-05-14T04:19:54.162Z,15.63
2018-05-14T04:22:22.512Z,15.72
2018-05-14T04:24:50.853Z,15.69
2018-05-14T04:27:19.213Z,15.55
2018-05-14T04:29:47.544Z,15.60
2018-05-14T04:32:15.905Z,15.57
2018-05-14T04:34:44.237Z,15.64
2018-05-14T04:37:12.594Z,15.61
2018-05-14T04:39:40.928Z,15.57
2018-05-14T04:42:09.296Z,15.55
2018-05-14T04:44:37.620Z,15.53
2018-05-14T04:47:05.977Z,15.62
2018-05-14T04:49:34.320Z,15.72
2018-05-14T04:52:02.722Z,15.75
2018-05-14T04:54:31.053Z,15.86
2018-05-14T04:56:59.412Z,15.97
2018-05-14T04:59:27.752Z,15.97
2018-05-14T05:01:56.136Z,16.06
2018-05-14T05:04:24.476Z,16.11
2018-05-14T05:06:52.848Z,16.12
2018-05-14T05:09:21.199Z,16.07
2018-05-14T05:11:49.561Z,16.15
2018-05-14T05:14:17.907Z,16.12
2018-05-14T05:16:46.270Z,16.13
2018-05-14T05:19:14.612Z,16.16
2018-05-14T05:21:42.981Z,16.18
2018-05-14T05:24:11.317Z,16.26
2018-05-14T05:26:39.682Z,16.31
2018-05-14T05:29:08.036Z,16.27
2018-05-14T05:31:36.371Z,16.39
2018-05-14T05:34:04.730Z,16.52
2018-05-14T05:36:33.208Z,16.61
2018-05-14T05:39:01.573Z,16.66
2018-05-14T05:41:29.911Z,16.78
2018-05-14T05:43:58.264Z,16.95
2018-05-14T05:46:26.604Z,17.14
2018-05-14T05:48:54.956Z,17.26
2018-05-14T05:51:23.285Z,17.41
2018-05-14T05:53:51.651Z,17.45
2018-05-14T05:56:19.985Z,17.59
2018-05-14T05:58:48.348Z,17.77
2018-05-14T06:01:16.680Z,17.92
2018-05-14T06:03:45.025Z,18.00
2018-05-14T06:06:13.356Z,18.06
2018-05-14T06:08:41.717Z,18.20
2018-05-14T06:11:10.064Z,18.28
2018-05-14T06:13:38.421Z,18.46
2018-05-14T06:16:07.553Z,18.52
2018-05-14T06:18:35.902Z,18.66
2018-05-14T06:21:04.226Z,18.81
2018-05-14T06:23:32.592Z,18.93
2018-05-14T06:26:00.933Z,19.04
2018-05-14T06:28:29.283Z,19.20
2018-05-14T06:30:57.614Z,19.25
2018-05-14T06:33:25.966Z,19.37
2018-05-14T06:35:54.289Z,19.41
2018-05-14T06:39:19.820Z,19.64
2018-05-14T06:41:48.170Z,19.81
2018-05-14T06:44:16.622Z,19.77
2018-05-14T06:46:44.848Z,19.78
2018-05-14T06:49:13.204Z,19.74
2018-05-14T06:51:41.532Z,19.85
2018-05-14T06:54:10.431Z,19.89
2018-05-14T06:56:38.613Z,20.02
2018-05-14T06:59:06.965Z,20.15
2018-05-14T07:01:35.288Z,20.27
2018-05-14T07:04:03.644Z,20.27
2018-05-14T07:06:32.464Z,20.36
2018-05-14T07:09:00.800Z,20.43
2018-05-14T07:11:29.151Z,20.48
2018-05-14T07:13:57.996Z,20.57
2018-05-14T07:16:26.329Z,20.54
2018-05-14T07:18:54.760Z,20.49
2018-05-14T07:21:23.120Z,20.41
2018-05-14T07:23:51.448Z,20.56
2018-05-14T07:26:19.776Z,20.64
2018-05-14T07:28:48.249Z,20.76
2018-05-14T07:31:16.598Z,20.88
2018-05-14T07:33:44.956Z,20.85
2018-05-14T07:36:13.358Z,20.93
2018-05-14T07:38:41.623Z,21.12
2018-05-14T07:41:10.148Z,21.11
2018-05-14T07:43:38.317Z,21.13
2018-05-14T07:46:06.728Z,21.23
2018-05-14T07:48:34.981Z,21.34
2018-05-14T07:51:03.312Z,21.31
2018-05-14T07:53:31.661Z,21.50
2018-05-14T07:56:00.021Z,21.66
2018-05-14T07:58:28.377Z,21.78
2018-05-14T08:00:56.688Z,21.90
2018-05-14T08:03:25.039Z,22.07
2018-05-14T08:05:53.377Z,21.93
2018-05-14T08:08:21.716Z,21.80
2018-05-14T08:10:50.050Z,21.95
2018-05-14T08:13:18.373Z,22.20
2018-05-14T08:15:46.721Z,22.35
2018-05-14T08:18:15.049Z,22.37
2018-05-14T08:20:43.392Z,22.37
2018-05-14T08:23:11.717Z,22.39
2018-05-14T08:25:40.056Z,22.49
2018-05-14T08:28:08.388Z,22.47
2018-05-14T08:30:36.733Z,22.57
2018-05-14T08:33:05.056Z,22.67
2018-05-14T08:35:33.406Z,22.89
2018-05-14T08:38:01.732Z,23.07
2018-05-14T08:40:30.071Z,23.12
2018-05-14T08:42:58.400Z,23.15
2018-05-14T08:45:26.740Z,23.25
2018-05-14T08:47:55.103Z,23.39
2018-05-14T08:50:23.404Z,23.44
2018-05-14T08:52:51.723Z,23.66
2018-05-14T08:55:20.072Z,23.80
2018-05-14T08:57:48.397Z,23.92
2018-05-14T09:00:16.739Z,24.05
2018-05-14T09:02:45.073Z,24.17
2018-05-14T09:05:13.426Z,24.25
2018-05-14T09:07:41.745Z,24.33
2018-05-14T09:10:10.088Z,24.40
2018-05-14T09:12:38.417Z,24.53
2018-05-14T09:15:06.761Z,24.42
2018-05-14T09:17:35.089Z,24.40
2018-05-14T09:20:03.433Z,24.53
2018-05-14T09:22:31.769Z,24.59
2018-05-14T09:25:00.105Z,24.68
2018-05-14T09:27:28.425Z,24.83
2018-05-14T09:29:56.773Z,24.79
2018-05-14T09:32:25.095Z,24.83
2018-05-14T09:34:53.448Z,24.84
2018-05-14T09:37:21.869Z,24.89
2018-05-14T09:39:50.112Z,25.04
2018-05-14T09:42:18.441Z,25.11
2018-05-14T09:44:46.780Z,25.14
2018-05-14T09:47:15.105Z,25.28
2018-05-14T09:49:43.448Z,25.32
2018-05-14T09:52:11.772Z,25.52
2018-05-14T09:54:40.105Z,25.68
2018-05-14T09:57:08.427Z,25.66
2018-05-14T09:59:36.773Z,25.84
2018-05-14T10:02:05.105Z,25.88
2018-05-14T10:04:33.448Z,25.89
2018-05-14T10:07:01.775Z,26.00
2018-05-14T10:09:30.128Z,26.00
2018-05-14T10:11:58.904Z,26.25
2018-05-14T10:14:27.235Z,26.33
2018-05-14T10:16:55.584Z,26.48
2018-05-14T10:19:23.899Z,26.53
2018-05-14T10:21:52.244Z,26.53
2018-05-14T10:24:20.566Z,26.57
2018-05-14T10:26:48.917Z,26.65
2018-05-14T10:29:17.244Z,26.79
2018-05-14T10:31:45.594Z,26.85
2018-05-14T10:34:13.921Z,27.00
2018-05-14T10:36:42.269Z,27.06
2018-05-14T10:39:10.592Z,27.09
2018-05-14T10:41:38.936Z,27.02
2018-05-14T10:44:07.265Z,26.97
2018-05-14T10:46:35.612Z,27.03
2018-05-14T10:49:03.933Z,27.16
2018-05-14T10:51:32.285Z,27.18
2018-05-14T10:54:00.609Z,27.21
2018-05-14T10:56:28.959Z,27.23
2018-05-14T10:58:57.290Z,27.41
2018-05-14T11:01:25.646Z,27.32
2018-05-14T11:03:54.022Z,27.37
2018-05-14T11:06:22.330Z,27.37
2018-05-14T11:08:50.686Z,27.43
2018-05-14T11:11:19.037Z,27.43
2018-05-14T11:13:47.360Z,27.45
2018-05-14T11:16:15.709Z,27.39
2018-05-14T11:18:44.114Z,27.42
2018-05-14T11:21:12.388Z,27.54
2018-05-14T11:23:40.717Z,27.71
2018-05-14T11:26:09.064Z,27.78
2018-05-14T11:28:37.392Z,27.90
2018-05-14T11:31:05.727Z,27.83
2018-05-14T11:33:34.053Z,27.94
2018-05-14T11:36:02.404Z,28.08
2018-05-14T11:38:30.730Z,28.18
2018-05-14T11:40:59.090Z,28.20
2018-05-14T11:43:27.420Z,28.26
2018-05-14T11:45:55.753Z,28.21
2018-05-14T11:48:24.126Z,28.19
2018-05-14T11:50:52.513Z,28.19
2018-05-14T11:53:20.800Z,28.13
2018-05-14T11:55:49.136Z,28.17
2018-05-14T11:58:18.064Z,28.27
2018-05-14T12:00:46.392Z,28.37
2018-05-14T12:03:14.844Z,28.27
2018-05-14T12:05:43.079Z,28.31
2018-05-14T12:08:11.430Z,28.24
2018-05-14T12:10:39.753Z,28.29
2018-05-14T12:13:08.105Z,28.38
2018-05-14T12:15:36.423Z,28.49
2018-05-14T12:18:05.235Z,28.52
2018-05-14T12:20:34.607Z,28.56
2018-05-14T12:23:03.276Z,28.61
2018-05-14T12:25:32.035Z,28.63
2018-05-14T12:28:00.963Z,28.69
2018-05-14T12:30:29.633Z,28.65
2018-05-14T12:32:58.312Z,28.38
2018-05-14T12:35:26.949Z,28.39
2018-05-14T12:37:55.601Z,28.41
2018-05-14T12:40:24.765Z,28.59
2018-05-14T12:42:53.860Z,28.69
2018-05-14T12:45:23.729Z,28.83
2018-05-14T12:47:52.402Z,28.92
2018-05-14T12:50:21.023Z,28.85
2018-05-14T12:52:49.710Z,28.75
2018-05-14T12:55:19.199Z,28.72
2018-05-14T12:57:47.984Z,28.73
2018-05-14T13:00:16.569Z,28.83
2018-05-14T13:02:45.252Z,29.00
2018-05-14T13:05:14.420Z,29.13
2018-05-14T13:07:43.055Z,29.08
2018-05-14T13:10:11.736Z,29.08
2018-05-14T13:12:40.589Z,29.15
2018-05-14T13:15:09.171Z,29.23
2018-05-14T13:17:38.220Z,29.05
2018-05-14T13:20:06.813Z,28.78
2018-05-14T13:22:35.570Z,28.67
2018-05-14T13:25:04.316Z,28.81
2018-05-14T13:27:33.169Z,28.94
2018-05-14T13:30:01.780Z,28.70
2018-05-14T13:32:30.560Z,28.56
2018-05-14T13:35:00.370Z,28.18
2018-05-14T13:37:29.193Z,28.35
2018-05-14T13:39:57.553Z,28.60
2018-05-14T13:42:25.905Z,28.68
2018-05-14T13:44:54.237Z,28.64
2018-05-14T13:47:23.427Z,28.59
2018-05-14T13:49:51.766Z,28.58
2018-05-14T13:52:20.123Z,28.56
2018-05-14T13:54:48.457Z,28.53
2018-05-14T13:57:16.785Z,28.71
2018-05-14T13:59:45.120Z,28.82
2018-05-14T14:02:13.444Z,28.99
2018-05-14T14:04:41.803Z,29.08
2018-05-14T14:07:11.205Z,28.96
2018-05-14T14:09:39.548Z,28.92
2018-05-14T14:12:07.873Z,29.00
2018-05-14T14:14:36.229Z,29.04
2018-05-14T14:17:04.583Z,29.01
2018-05-14T14:19:32.897Z,28.81
2018-05-14T14:22:01.227Z,28.80
2018-05-14T14:24:29.594Z,28.82
2018-05-14T14:26:57.916Z,28.83
2018-05-14T14:29:26.265Z,28.70
2018-05-14T14:31:54.597Z,28.69
2018-05-14T14:34:22.949Z,28.44
2018-05-14T14:36:51.277Z,28.52
2018-05-14T14:39:19.657Z,28.52
2018-05-14T14:41:48.105Z,28.56
2018-05-14T14:44:16.436Z,28.69
2018-05-14T14:46:45.777Z,28.78
2018-05-14T14:49:14.211Z,28.66
2018-05-14T14:51:42.453Z,28.68
2018-05-14T14:54:10.804Z,28.67
2018-05-14T14:56:39.133Z,28.59
2018-05-14T14:59:07.482Z,28.53
2018-05-14T15:01:35.812Z,28.68
2018-05-14T15:04:04.157Z,28.68
2018-05-14T15:06:32.565Z,28.59
2018-05-14T15:09:00.908Z,28.64
2018-05-14T15:11:29.232Z,28.65
2018-05-14T15:13:57.579Z,28.83
2018-05-14T15:16:25.918Z,28.98
2018-05-14T15:18:54.261Z,28.68
2018-05-14T15:21:22.678Z,28.23
2018-05-14T15:23:51.092Z,28.02
2018-05-14T15:26:20.409Z,27.87
2018-05-14T15:28:48.752Z,27.66
2018-05-14T15:31:17.073Z,27.79
2018-05-14T15:33:45.426Z,27.80
2018-05-14T15:36:13.762Z,27.91
2018-05-14T15:38:42.109Z,28.03
2018-05-14T15:41:10.441Z,28.02
2018-05-14T15:43:38.792Z,27.90
2018-05-14T15:46:07.208Z,27.92
2018-05-14T15:48:35.557Z,28.10
2018-05-14T15:51:03.881Z,27.99
2018-05-14T15:53:32.224Z,27.94
2018-05-14T15:56:00.549Z,28.02
2018-05-14T15:58:28.872Z,28.07
2018-05-14T16:00:57.223Z,27.95
2018-05-14T16:03:25.554Z,27.98
2018-05-14T16:05:54.940Z,28.07
2018-05-14T16:08:23.267Z,28.05
2018-05-14T16:10:51.612Z,27.94
2018-05-14T16:13:19.937Z,27.82
2018-05-14T16:15:48.287Z,27.80
2018-05-14T16:18:16.604Z,27.78
2018-05-14T16:20:45.064Z,27.73
2018-05-14T16:23:13.288Z,27.60
2018-05-14T16:25:41.684Z,27.56
2018-05-14T16:28:10.012Z,27.68
2018-05-14T16:30:38.364Z,27.57
2018-05-14T16:33:06.689Z,27.63
2018-05-14T16:35:35.040Z,27.70
2018-05-14T16:38:03.384Z,27.60
2018-05-14T16:43:05.367Z,27.63
2018-05-14T16:45:33.721Z,27.65
2018-05-14T16:48:02.068Z,27.49
2018-05-14T16:50:30.429Z,27.31
2018-05-14T16:52:58.757Z,27.39
2018-05-14T16:55:27.127Z,27.14
2018-05-14T16:57:55.477Z,27.04
2018-05-14T17:00:23.791Z,26.86
2018-05-14T17:02:52.124Z,26.96
2018-05-14T17:05:20.485Z,26.84
2018-05-14T17:07:48.821Z,26.64
2018-05-14T17:10:17.186Z,26.73
2018-05-14T17:12:45.526Z,26.63
2018-05-14T17:15:13.872Z,26.62
2018-05-14T17:17:42.205Z,26.55
2018-05-14T17:20:10.557Z,26.64
2018-05-14T17:22:38.885Z,26.56
2018-05-14T17:25:07.240Z,26.54
2018-05-14T17:27:35.591Z,26.51
2018-05-14T17:30:04.310Z,26.56
2018-05-14T17:32:32.630Z,26.52
2018-05-14T17:35:00.985Z,26.53
2018-05-14T17:37:29.326Z,26.45
2018-05-14T17:39:57.685Z,26.44
2018-05-14T17:42:26.017Z,26.45
2018-05-14T17:44:54.370Z,26.37
2018-05-14T17:47:22.701Z,26.33
2018-05-14T17:49:51.056Z,26.20
2018-05-14T17:52:19.395Z,26.30
2018-05-14T17:54:47.756Z,26.27
2018-05-14T17:57:16.076Z,26.11
2018-05-14T17:59:44.437Z,26.07
2018-05-14T18:02:12.769Z,25.95
2018-05-14T18:04:41.117Z,25.86
2018-05-14T18:07:09.463Z,25.94
2018-05-14T18:09:37.793Z,25.86
2018-05-14T18:12:06.147Z,25.73
2018-05-14T18:14:34.465Z,25.67
2018-05-14T18:17:02.817Z,25.64
2018-05-14T18:19:36.745Z,25.51
2018-05-14T18:22:10.613Z,25.37
2018-05-14T18:24:38.953Z,25.37
2018-05-14T18:27:09.097Z,25.26
2018-05-14T18:29:38.765Z,25.13
2018-05-14T18:32:07.112Z,25.01
2018-05-14T18:34:39.350Z,24.95
2018-05-14T18:37:08.117Z,24.91
2018-05-14T18:39:36.456Z,24.87
2018-05-14T18:42:04.797Z,24.80
2018-05-14T18:44:34.025Z,24.79
2018-05-14T18:47:02.393Z,24.63
2018-05-14T18:49:30.907Z,24.53
2018-05-14T18:51:59.282Z,24.47
2018-05-14T18:54:27.594Z,24.53
2018-05-14T18:56:55.953Z,24.32
2018-05-14T18:59:24.351Z,24.18
2018-05-14T19:01:52.944Z,24.14
2018-05-14T19:04:21.285Z,24.11
2018-05-14T19:06:49.827Z,24.14
2018-05-14T19:09:18.149Z,23.93
2018-05-14T19:11:52.449Z,23.86
2018-05-14T19:14:20.812Z,23.70
2018-05-14T19:16:54.896Z,23.58
2018-05-14T19:19:23.673Z,23.53
2018-05-14T19:21:52.030Z,23.44
2018-05-14T19:24:20.601Z,23.32
2018-05-14T19:26:50.131Z,23.28
2018-05-14T19:29:24.243Z,23.25
2018-05-14T19:31:52.545Z,23.25
2018-05-14T19:34:26.415Z,23.26
2018-05-14T19:36:54.757Z,23.25
2018-05-14T19:39:28.824Z,23.10
2018-05-14T19:41:57.171Z,22.98
2018-05-14T19:44:25.496Z,22.93
2018-05-14T19:46:53.852Z,22.87
2018-05-14T19:49:22.188Z,22.85
2018-05-14T19:51:50.833Z,22.65
2018-05-14T19:54:19.547Z,22.60
2018-05-14T19:56:48.264Z,22.50
2018-05-14T19:59:17.056Z,22.31
2018-05-14T20:01:45.789Z,22.28
2018-05-14T20:04:14.555Z,22.11
2018-05-14T20:06:43.247Z,22.17
2018-05-14T20:09:11.545Z,22.17
2018-05-14T20:11:39.895Z,22.10
2018-05-14T20:14:08.227Z,22.02
2018-05-14T20:16:36.576Z,21.79
2018-05-14T20:19:04.906Z,21.86
2018-05-14T20:21:33.519Z,21.80
2018-05-14T20:24:02.193Z,21.79
2018-05-14T20:26:31.061Z,21.78
2018-05-14T20:28:59.825Z,21.76
2018-05-14T20:31:28.664Z,21.72
2018-05-14T20:33:57.374Z,21.73
2018-05-14T20:36:26.179Z,21.68
2018-05-14T20:38:54.824Z,21.63
2018-05-14T20:41:23.562Z,21.50
2018-05-14T20:43:52.231Z,21.53
2018-05-14T20:46:21.886Z,21.36
2018-05-14T20:48:50.428Z,21.23
2018-05-14T20:51:18.744Z,21.16
2018-05-14T20:53:47.088Z,21.11
2018-05-14T20:56:15.424Z,21.03
2018-05-14T20:58:43.777Z,21.00
2018-05-14T21:01:12.124Z,21.00
2018-05-14T21:03:40.472Z,20.86
2018-05-14T21:06:08.798Z,20.77
2018-05-14T21:08:37.150Z,20.57
2018-05-14T21:11:05.477Z,20.55
2018-05-14T21:13:33.821Z,20.51
2018-05-14T21:16:02.160Z,20.42
2018-05-14T21:18:30.513Z,20.23
2018-05-14T21:20:58.836Z,20.02
2018-05-14T21:23:27.193Z,19.76
2018-05-14T21:25:55.522Z,19.76
2018-05-14T21:28:23.869Z,19.84
2018-05-14T21:30:52.209Z,19.88
2018-05-14T21:33:20.548Z,19.89
2018-05-14T21:35:48.877Z,19.88
2018-05-14T21:38:17.221Z,19.97
2018-05-14T21:40:45.541Z,19.94
2018-05-14T21:43:13.891Z,19.90
2018-05-14T21:45:42.217Z,19.92
2018-05-14T21:48:10.560Z,19.97
2018-05-14T21:50:38.884Z,20.01
2018-05-14T21:53:07.232Z,19.96
2018-05-14T21:55:35.558Z,19.91
2018-05-14T21:58:03.901Z,19.88
2018-05-14T22:00:32.224Z,19.85
2018-05-14T22:03:00.564Z,19.83
2018-05-14T22:05:28.885Z,19.84
2018-05-14T22:07:57.225Z,19.80
2018-05-14T22:10:25.548Z,19.72
2018-05-14T22:12:53.894Z,19.71
2018-05-14T22:15:22.220Z,19.64
2018-05-14T22:17:50.564Z,19.63
2018-05-14T22:20:18.892Z,19.62
2018-05-14T22:22:47.235Z,19.59
2018-05-14T22:25:15.560Z,19.47
2018-05-14T22:27:43.910Z,19.51
2018-05-14T22:30:12.233Z,19.40
2018-05-14T22:32:40.585Z,19.33
2018-05-14T22:35:08.909Z,19.29
2018-05-14T22:37:37.259Z,19.28
2018-05-14T22:40:05.589Z,19.32
2018-05-14T22:42:33.940Z,19.26
2018-05-14T22:45:02.280Z,19.15
2018-05-14T22:47:30.627Z,19.11
2018-05-14T22:49:58.944Z,19.08
2018-05-14T22:52:27.273Z,19.03
2018-05-14T22:54:55.616Z,18.92
2018-05-14T22:57:23.932Z,18.91
2018-05-14T22:59:52.272Z,18.80
2018-05-14T23:02:20.592Z,18.77
2018-05-14T23:04:48.942Z,18.82
2018-05-14T23:07:17.263Z,18.76
2018-05-14T23:09:45.604Z,18.67
2018-05-14T23:12:13.929Z,18.58
2018-05-14T23:14:42.268Z,18.57
2018-05-14T23:17:10.609Z,18.51
2018-05-14T23:19:38.966Z,18.46
2018-05-14T23:22:07.294Z,18.42
2018-05-14T23:24:35.639Z,18.40
2018-05-14T23:27:03.955Z,18.34
2018-05-14T23:29:32.309Z,18.29
2018-05-14T23:32:00.636Z,18.25
2018-05-14T23:34:28.985Z,18.26
2018-05-14T23:36:57.322Z,18.21
2018-05-14T23:39:25.669Z,18.26
2018-05-14T23:41:54.001Z,18.28
2018-05-14T23:44:22.348Z,18.24
2018-05-14T23:46:50.681Z,18.20
2018-05-14T23:49:19.033Z,18.11
2018-05-14T23:51:47.364Z,18.06
2018-05-14T23:54:15.721Z,17.98
2018-05-14T23:56:44.054Z,17.87
2018-05-14T23:59:12.405Z,17.70
